createdAt,value
2017-09-16T00:00:03.524Z,999.56
2017-09-16T00:00:44.084Z,999.59
2017-09-16T00:01:24.647Z,999.6
2017-09-16T00:02:05.213Z,999.57
2017-09-16T00:02:45.795Z,999.6
2017-09-16T00:03:26.371Z,999.58
2017-09-16T00:04:06.926Z,999.57
2017-09-16T00:04:47.490Z,999.51
2017-09-16T00:05:28.044Z,999.55
2017-09-16T00:06:08.623Z,999.54
2017-09-16T00:06:49.181Z,999.56
2017-09-16T00:07:29.757Z,999.55
2017-09-16T00:08:10.318Z,999.53
2017-09-16T00:08:50.875Z,999.51
2017-09-16T00:09:31.446Z,999.55
2017-09-16T00:10:11.998Z,999.55
2017-09-16T00:10:52.555Z,999.53
2017-09-16T00:11:33.118Z,999.51
2017-09-16T00:12:13.678Z,999.52
2017-09-16T00:12:54.235Z,999.55
2017-09-16T00:13:34.829Z,999.5
2017-09-16T00:14:15.389Z,999.53
2017-09-16T00:14:55.938Z,999.53
2017-09-16T00:15:36.501Z,999.55
2017-09-16T00:16:17.072Z,999.49
2017-09-16T00:16:57.640Z,999.5
2017-09-16T00:17:38.201Z,999.47
2017-09-16T00:18:18.764Z,999.44
2017-09-16T00:18:59.317Z,999.5
2017-09-16T00:19:39.878Z,999.51
2017-09-16T00:20:20.434Z,999.51
2017-09-16T00:21:01.014Z,999.51
2017-09-16T00:21:41.585Z,999.48
2017-09-16T00:22:22.145Z,999.47
2017-09-16T00:23:02.720Z,999.49
2017-09-16T00:23:43.279Z,999.44
2017-09-16T00:24:23.847Z,999.49
2017-09-16T00:25:04.412Z,999.46
2017-09-16T00:25:44.971Z,999.53
2017-09-16T00:26:25.527Z,999.48
2017-09-16T00:27:06.105Z,999.5
2017-09-16T00:27:46.650Z,999.44
2017-09-16T00:28:27.221Z,999.47
2017-09-16T00:29:07.778Z,999.53
2017-09-16T00:29:48.341Z,999.48
2017-09-16T00:30:28.926Z,999.48
2017-09-16T00:31:09.460Z,999.49
2017-09-16T00:31:50.022Z,999.49
2017-09-16T00:32:30.587Z,999.47
2017-09-16T00:33:11.157Z,999.5
2017-09-16T00:33:51.708Z,999.52
2017-09-16T00:34:32.291Z,999.5
2017-09-16T00:35:12.857Z,999.46
2017-09-16T00:35:53.420Z,999.48
2017-09-16T00:36:33.968Z,999.56
2017-09-16T00:37:14.540Z,999.48
2017-09-16T00:37:55.116Z,999.48
2017-09-16T00:38:35.656Z,999.5
2017-09-16T00:39:16.209Z,999.48
2017-09-16T00:39:56.785Z,999.5
2017-09-16T00:40:37.351Z,999.52
2017-09-16T00:41:17.928Z,999.49
2017-09-16T00:41:58.491Z,999.49
2017-09-16T00:42:39.051Z,999.52
2017-09-16T00:43:19.617Z,999.51
2017-09-16T00:44:00.177Z,999.55
2017-09-16T00:44:40.746Z,999.5
2017-09-16T00:45:21.321Z,999.48
2017-09-16T00:46:01.875Z,999.5
2017-09-16T00:46:42.429Z,999.48
2017-09-16T00:47:22.991Z,999.51
2017-09-16T00:48:03.547Z,999.53
2017-09-16T00:48:44.110Z,999.51
2017-09-16T00:49:24.663Z,999.49
2017-09-16T00:50:05.259Z,999.55
2017-09-16T00:50:45.849Z,999.52
2017-09-16T00:51:26.394Z,999.55
2017-09-16T00:52:06.943Z,999.5
2017-09-16T00:52:47.503Z,999.54
2017-09-16T00:53:28.059Z,999.49
2017-09-16T00:54:08.621Z,999.53
2017-09-16T00:54:49.196Z,999.5
2017-09-16T00:55:29.747Z,999.55
2017-09-16T00:56:10.328Z,999.53
2017-09-16T00:56:50.896Z,999.53
2017-09-16T00:57:31.469Z,999.55
2017-09-16T00:58:12.036Z,999.52
2017-09-16T00:58:52.590Z,999.51
2017-09-16T00:59:33.158Z,999.5
2017-09-16T01:00:13.736Z,999.51
2017-09-16T01:00:54.299Z,999.52
2017-09-16T01:01:34.854Z,999.45
2017-09-16T01:02:15.413Z,999.47
2017-09-16T01:02:55.980Z,999.52
2017-09-16T01:03:36.535Z,999.49
2017-09-16T01:04:17.097Z,999.5
2017-09-16T01:04:57.665Z,999.55
2017-09-16T01:05:38.218Z,999.48
2017-09-16T01:06:18.756Z,999.48
2017-09-16T01:06:59.328Z,999.51
2017-09-16T01:07:39.878Z,999.43
2017-09-16T01:08:20.462Z,999.45
2017-09-16T01:09:01.022Z,999.43
2017-09-16T01:09:41.575Z,999.45
2017-09-16T01:10:22.147Z,999.44
2017-09-16T01:11:02.715Z,999.41
2017-09-16T01:11:43.293Z,999.38
2017-09-16T01:12:23.857Z,999.38
2017-09-16T01:13:04.422Z,999.37
2017-09-16T01:13:44.982Z,999.33
2017-09-16T01:14:25.537Z,999.34
2017-09-16T01:15:06.102Z,999.4
2017-09-16T01:15:46.683Z,999.34
2017-09-16T01:16:27.232Z,999.31
2017-09-16T01:17:07.803Z,999.34
2017-09-16T01:17:48.371Z,999.33
2017-09-16T01:18:28.932Z,999.34
2017-09-16T01:19:10.323Z,999.32
2017-09-16T01:19:50.047Z,999.3
2017-09-16T01:20:30.627Z,999.3
2017-09-16T01:21:11.180Z,999.29
2017-09-16T01:21:51.748Z,999.3
2017-09-16T01:22:32.317Z,999.26
2017-09-16T01:23:12.885Z,999.27
2017-09-16T01:23:53.439Z,999.31
2017-09-16T01:24:34.001Z,999.24
2017-09-16T01:25:14.568Z,999.25
2017-09-16T01:25:55.142Z,999.27
2017-09-16T01:26:35.699Z,999.32
2017-09-16T01:27:16.281Z,999.29
2017-09-16T01:27:56.833Z,999.25
2017-09-16T01:28:37.390Z,999.24
2017-09-16T01:29:17.965Z,999.26
2017-09-16T01:29:58.538Z,999.26
2017-09-16T01:30:39.080Z,999.26
2017-09-16T01:31:19.644Z,999.29
2017-09-16T01:32:00.216Z,999.26
2017-09-16T01:32:40.772Z,999.26
2017-09-16T01:33:21.348Z,999.24
2017-09-16T01:34:01.894Z,999.3
2017-09-16T01:34:42.485Z,999.28
2017-09-16T01:35:23.037Z,999.31
2017-09-16T01:36:03.581Z,999.27
2017-09-16T01:36:44.151Z,999.25
2017-09-16T01:37:24.721Z,999.25
2017-09-16T01:38:05.288Z,999.25
2017-09-16T01:38:45.842Z,999.27
2017-09-16T01:39:26.401Z,999.22
2017-09-16T01:40:06.975Z,999.25
2017-09-16T01:40:47.533Z,999.26
2017-09-16T01:41:28.107Z,999.28
2017-09-16T01:42:08.668Z,999.25
2017-09-16T01:42:49.230Z,999.21
2017-09-16T01:43:29.784Z,999.23
2017-09-16T01:44:10.335Z,999.22
2017-09-16T01:44:50.902Z,999.22
2017-09-16T01:45:31.458Z,999.19
2017-09-16T01:46:12.015Z,999.22
2017-09-16T01:46:52.584Z,999.21
2017-09-16T01:47:33.138Z,999.2
2017-09-16T01:48:13.697Z,999.16
2017-09-16T01:48:54.264Z,999.2
2017-09-16T01:49:34.812Z,999.14
2017-09-16T01:50:15.365Z,999.15
2017-09-16T01:50:55.928Z,999.12
2017-09-16T01:51:36.505Z,999.13
2017-09-16T01:52:17.833Z,999.16
2017-09-16T01:52:57.622Z,999.16
2017-09-16T01:53:38.183Z,999.14
2017-09-16T01:54:18.739Z,999.15
2017-09-16T01:54:59.300Z,999.15
2017-09-16T01:55:39.849Z,999.11
2017-09-16T01:56:20.421Z,999.12
2017-09-16T01:57:00.975Z,999.1
2017-09-16T01:57:41.529Z,999.09
2017-09-16T01:58:22.102Z,999.06
2017-09-16T01:59:02.662Z,999.03
2017-09-16T01:59:43.211Z,999.07
2017-09-16T02:00:23.774Z,999.05
2017-09-16T02:01:04.345Z,999.08
2017-09-16T02:01:44.924Z,999.06
2017-09-16T02:02:25.492Z,999.08
2017-09-16T02:03:06.046Z,999.08
2017-09-16T02:03:46.607Z,999.08
2017-09-16T02:04:27.159Z,999.08
2017-09-16T02:05:07.733Z,999.07
2017-09-16T02:05:48.321Z,999.13
2017-09-16T02:06:28.887Z,999.1
2017-09-16T02:07:09.428Z,999.1
2017-09-16T02:07:49.999Z,999.04
2017-09-16T02:08:30.560Z,999.04
2017-09-16T02:09:11.117Z,999.08
2017-09-16T02:09:51.672Z,999.07
2017-09-16T02:10:32.228Z,999.04
2017-09-16T02:11:12.792Z,999.1
2017-09-16T02:11:53.361Z,999.05
2017-09-16T02:12:33.940Z,999.05
2017-09-16T02:13:14.504Z,999.06
2017-09-16T02:13:55.059Z,999.03
2017-09-16T02:14:35.634Z,999.07
2017-09-16T02:15:16.192Z,999.08
2017-09-16T02:15:56.750Z,999.02
2017-09-16T02:16:37.309Z,999.07
2017-09-16T02:17:17.890Z,999.08
2017-09-16T02:17:58.450Z,999.04
2017-09-16T02:18:39.011Z,999.07
2017-09-16T02:19:19.569Z,999.05
2017-09-16T02:20:00.111Z,999.07
2017-09-16T02:20:40.680Z,999.07
2017-09-16T02:21:21.233Z,999.04
2017-09-16T02:22:01.790Z,999.02
2017-09-16T02:22:42.377Z,999.12
2017-09-16T02:23:22.934Z,999.04
2017-09-16T02:24:03.495Z,999.05
2017-09-16T02:24:44.041Z,999.07
2017-09-16T02:25:24.601Z,999.02
2017-09-16T02:26:05.161Z,999.02
2017-09-16T02:26:45.732Z,999.07
2017-09-16T02:27:26.298Z,999.04
2017-09-16T02:28:06.852Z,999.06
2017-09-16T02:28:47.430Z,999.07
2017-09-16T02:29:27.978Z,999.05
2017-09-16T02:30:08.539Z,999.06
2017-09-16T02:30:49.103Z,999.02
2017-09-16T02:31:29.668Z,998.98
2017-09-16T02:32:10.229Z,999.02
2017-09-16T02:32:50.784Z,998.99
2017-09-16T02:33:31.346Z,998.97
2017-09-16T02:34:11.909Z,998.99
2017-09-16T02:34:52.471Z,998.98
2017-09-16T02:35:33.033Z,998.99
2017-09-16T02:36:13.590Z,998.99
2017-09-16T02:36:54.156Z,998.97
2017-09-16T02:37:34.732Z,998.99
2017-09-16T02:38:15.283Z,998.96
2017-09-16T02:38:55.868Z,998.96
2017-09-16T02:39:36.442Z,998.95
2017-09-16T02:40:16.982Z,998.97
2017-09-16T02:40:57.555Z,998.92
2017-09-16T02:41:38.115Z,998.91
2017-09-16T02:42:18.668Z,998.95
2017-09-16T02:42:59.228Z,998.95
2017-09-16T02:43:39.787Z,998.97
2017-09-16T02:44:20.359Z,998.96
2017-09-16T02:45:00.923Z,998.94
2017-09-16T02:45:41.481Z,998.92
2017-09-16T02:46:22.051Z,998.93
2017-09-16T02:47:02.621Z,998.92
2017-09-16T02:47:43.156Z,998.92
2017-09-16T02:48:23.719Z,998.94
2017-09-16T02:49:04.279Z,998.93
2017-09-16T02:49:44.838Z,998.93
2017-09-16T02:50:25.378Z,998.93
2017-09-16T02:51:05.930Z,998.99
2017-09-16T02:51:46.497Z,999.02
2017-09-16T02:52:27.056Z,999.03
2017-09-16T02:53:07.625Z,999
2017-09-16T02:53:48.186Z,999.01
2017-09-16T02:54:28.754Z,998.95
2017-09-16T02:55:09.345Z,998.98
2017-09-16T02:55:49.908Z,998.96
2017-09-16T02:56:30.471Z,998.98
2017-09-16T02:57:11.027Z,998.97
2017-09-16T02:57:51.566Z,998.97
2017-09-16T02:58:32.133Z,998.98
2017-09-16T02:59:12.691Z,998.97
2017-09-16T02:59:53.238Z,998.97
2017-09-16T03:00:33.802Z,998.95
2017-09-16T03:01:14.365Z,998.96
2017-09-16T03:01:54.927Z,998.97
2017-09-16T03:02:35.479Z,998.97
2017-09-16T03:03:16.033Z,998.95
2017-09-16T03:03:56.601Z,998.93
2017-09-16T03:04:37.144Z,998.98
2017-09-16T03:05:17.732Z,998.96
2017-09-16T03:05:58.269Z,998.99
2017-09-16T03:06:38.825Z,998.99
2017-09-16T03:07:19.375Z,999
2017-09-16T03:07:59.942Z,998.98
2017-09-16T03:08:40.500Z,998.95
2017-09-16T03:09:21.065Z,999
2017-09-16T03:10:01.635Z,999.03
2017-09-16T03:10:42.190Z,998.99
2017-09-16T03:11:22.750Z,998.99
2017-09-16T03:12:03.320Z,998.99
2017-09-16T03:12:43.872Z,999.05
2017-09-16T03:13:24.419Z,999.05
2017-09-16T03:14:04.975Z,999.03
2017-09-16T03:14:45.524Z,999.02
2017-09-16T03:15:26.079Z,999.03
2017-09-16T03:16:06.653Z,999.04
2017-09-16T03:16:47.223Z,999.01
2017-09-16T03:17:27.781Z,998.99
2017-09-16T03:18:08.345Z,999.04
2017-09-16T03:18:48.911Z,998.97
2017-09-16T03:19:29.456Z,998.99
2017-09-16T03:20:10.006Z,998.99
2017-09-16T03:20:50.567Z,998.96
2017-09-16T03:21:31.134Z,998.92
2017-09-16T03:22:11.705Z,998.88
2017-09-16T03:22:52.259Z,998.85
2017-09-16T03:23:32.825Z,998.92
2017-09-16T03:24:13.390Z,998.92
2017-09-16T03:24:53.966Z,998.91
2017-09-16T03:25:34.514Z,998.88
2017-09-16T03:26:15.080Z,998.92
2017-09-16T03:26:55.635Z,998.91
2017-09-16T03:27:36.196Z,998.87
2017-09-16T03:28:16.759Z,998.85
2017-09-16T03:28:57.307Z,998.9
2017-09-16T03:29:37.885Z,998.89
2017-09-16T03:30:18.458Z,998.92
2017-09-16T03:30:59.022Z,998.86
2017-09-16T03:31:39.599Z,998.89
2017-09-16T03:32:20.159Z,998.83
2017-09-16T03:33:00.709Z,998.83
2017-09-16T03:33:41.291Z,998.81
2017-09-16T03:34:21.865Z,998.77
2017-09-16T03:35:02.437Z,998.8
2017-09-16T03:35:43.000Z,998.8
2017-09-16T03:36:23.556Z,998.84
2017-09-16T03:37:04.116Z,998.86
2017-09-16T03:37:44.652Z,998.8
2017-09-16T03:38:25.246Z,998.89
2017-09-16T03:39:05.809Z,998.87
2017-09-16T03:39:46.373Z,998.85
2017-09-16T03:40:26.938Z,998.82
2017-09-16T03:41:07.492Z,998.87
2017-09-16T03:41:48.052Z,998.85
2017-09-16T03:42:28.612Z,998.86
2017-09-16T03:43:09.172Z,998.86
2017-09-16T03:43:49.728Z,998.86
2017-09-16T03:44:30.286Z,998.83
2017-09-16T03:45:10.856Z,998.83
2017-09-16T03:45:51.405Z,998.89
2017-09-16T03:46:31.971Z,998.86
2017-09-16T03:47:12.530Z,998.88
2017-09-16T03:47:53.083Z,998.87
2017-09-16T03:48:33.636Z,998.85
2017-09-16T03:49:14.205Z,998.88
2017-09-16T03:49:54.762Z,998.88
2017-09-16T03:50:35.313Z,998.86
2017-09-16T03:51:15.872Z,998.89
2017-09-16T03:51:56.437Z,998.88
2017-09-16T03:52:36.991Z,998.88
2017-09-16T03:53:17.545Z,998.9
2017-09-16T03:53:58.084Z,998.88
2017-09-16T03:54:38.624Z,998.89
2017-09-16T03:55:19.159Z,998.84
2017-09-16T03:55:59.728Z,998.88
2017-09-16T03:56:40.276Z,998.89
2017-09-16T03:57:20.842Z,998.87
2017-09-16T03:58:01.421Z,998.85
2017-09-16T03:58:41.934Z,998.89
2017-09-16T03:59:22.490Z,998.86
2017-09-16T04:00:03.037Z,998.87
2017-09-16T04:00:43.582Z,998.91
2017-09-16T04:01:24.136Z,998.92
2017-09-16T04:02:04.687Z,998.87
2017-09-16T04:02:45.245Z,998.92
2017-09-16T04:03:25.791Z,998.89
2017-09-16T04:04:06.343Z,998.92
2017-09-16T04:04:46.894Z,998.94
2017-09-16T04:05:27.439Z,998.94
2017-09-16T04:06:07.997Z,998.94
2017-09-16T04:06:48.551Z,998.97
2017-09-16T04:07:29.114Z,998.91
2017-09-16T04:08:09.678Z,998.94
2017-09-16T04:08:50.229Z,998.94
2017-09-16T04:09:30.790Z,998.94
2017-09-16T04:10:11.334Z,998.93
2017-09-16T04:10:51.907Z,998.97
2017-09-16T04:11:32.462Z,998.92
2017-09-16T04:12:13.030Z,998.94
2017-09-16T04:12:53.590Z,998.98
2017-09-16T04:13:34.159Z,998.96
2017-09-16T04:14:14.727Z,998.97
2017-09-16T04:14:55.272Z,998.95
2017-09-16T04:15:35.857Z,998.93
2017-09-16T04:16:16.403Z,998.91
2017-09-16T04:16:56.977Z,998.94
2017-09-16T04:17:37.547Z,998.94
2017-09-16T04:18:18.113Z,998.91
2017-09-16T04:18:58.669Z,998.89
2017-09-16T04:19:39.250Z,998.86
2017-09-16T04:20:19.799Z,998.85
2017-09-16T04:21:00.353Z,998.87
2017-09-16T04:21:40.904Z,998.85
2017-09-16T04:22:21.481Z,998.89
2017-09-16T04:23:02.035Z,998.88
2017-09-16T04:23:42.625Z,998.87
2017-09-16T04:24:23.192Z,998.86
2017-09-16T04:25:03.775Z,998.81
2017-09-16T04:25:44.336Z,998.88
2017-09-16T04:26:24.892Z,998.87
2017-09-16T04:27:05.455Z,998.89
2017-09-16T04:27:46.010Z,998.88
2017-09-16T04:28:26.579Z,998.85
2017-09-16T04:29:07.170Z,998.88
2017-09-16T04:29:47.746Z,998.89
2017-09-16T04:30:28.290Z,998.89
2017-09-16T04:31:08.849Z,998.87
2017-09-16T04:31:49.412Z,998.85
2017-09-16T04:32:29.964Z,998.9
2017-09-16T04:33:10.525Z,998.88
2017-09-16T04:33:51.071Z,998.9
2017-09-16T04:34:31.614Z,998.89
2017-09-16T04:35:12.165Z,998.9
2017-09-16T04:35:52.729Z,998.91
2017-09-16T04:36:33.281Z,998.9
2017-09-16T04:37:13.837Z,998.91
2017-09-16T04:37:54.388Z,998.86
2017-09-16T04:38:34.971Z,998.9
2017-09-16T04:39:15.518Z,998.83
2017-09-16T04:39:56.082Z,998.86
2017-09-16T04:40:36.639Z,998.89
2017-09-16T04:41:17.202Z,998.87
2017-09-16T04:41:57.753Z,998.87
2017-09-16T04:42:38.325Z,998.92
2017-09-16T04:43:18.898Z,998.89
2017-09-16T04:43:59.441Z,998.91
2017-09-16T04:44:39.980Z,998.87
2017-09-16T04:45:20.534Z,998.86
2017-09-16T04:46:01.078Z,998.88
2017-09-16T04:46:41.627Z,998.88
2017-09-16T04:47:22.185Z,998.86
2017-09-16T04:48:02.727Z,998.87
2017-09-16T04:48:43.281Z,998.86
2017-09-16T04:49:23.829Z,998.84
2017-09-16T04:50:04.402Z,998.8
2017-09-16T04:50:44.962Z,998.85
2017-09-16T04:51:25.520Z,998.85
2017-09-16T04:52:06.082Z,998.88
2017-09-16T04:52:46.655Z,998.88
2017-09-16T04:53:27.203Z,998.89
2017-09-16T04:54:07.789Z,998.86
2017-09-16T04:54:48.335Z,998.85
2017-09-16T04:55:28.888Z,998.85
2017-09-16T04:56:09.446Z,998.86
2017-09-16T04:56:50.012Z,998.83
2017-09-16T04:57:30.583Z,998.82
2017-09-16T04:58:11.144Z,998.86
2017-09-16T04:58:51.695Z,998.82
2017-09-16T04:59:32.271Z,998.81
2017-09-16T05:00:12.844Z,998.82
2017-09-16T05:00:53.411Z,998.84
2017-09-16T05:01:33.963Z,998.86
2017-09-16T05:02:14.525Z,998.85
2017-09-16T05:02:55.079Z,998.8
2017-09-16T05:03:35.655Z,998.84
2017-09-16T05:04:16.260Z,998.88
2017-09-16T05:04:56.998Z,998.85
2017-09-16T05:05:37.643Z,998.82
2017-09-16T05:06:18.207Z,998.87
2017-09-16T05:06:58.767Z,998.83
2017-09-16T05:07:39.326Z,998.83
2017-09-16T05:08:19.920Z,998.85
2017-09-16T05:09:00.496Z,998.82
2017-09-16T05:09:41.068Z,998.86
2017-09-16T05:10:21.626Z,998.87
2017-09-16T05:11:02.189Z,998.86
2017-09-16T05:11:42.785Z,998.86
2017-09-16T05:12:23.339Z,998.89
2017-09-16T05:13:03.909Z,998.87
2017-09-16T05:13:44.479Z,998.9
2017-09-16T05:14:25.030Z,998.86
2017-09-16T05:15:05.590Z,998.89
2017-09-16T05:15:46.134Z,998.89
2017-09-16T05:16:26.700Z,998.88
2017-09-16T05:17:07.257Z,998.95
2017-09-16T05:17:47.827Z,998.99
2017-09-16T05:18:28.391Z,998.95
2017-09-16T05:19:08.939Z,998.96
2017-09-16T05:19:49.508Z,999
2017-09-16T05:20:30.077Z,998.93
2017-09-16T05:21:10.644Z,998.99
2017-09-16T05:21:51.179Z,998.99
2017-09-16T05:22:31.758Z,999
2017-09-16T05:23:12.331Z,999.01
2017-09-16T05:23:52.899Z,999.02
2017-09-16T05:24:33.453Z,999
2017-09-16T05:25:14.001Z,999.03
2017-09-16T05:25:54.568Z,999
2017-09-16T05:26:35.126Z,999.03
2017-09-16T05:27:15.688Z,999.01
2017-09-16T05:27:56.263Z,999.02
2017-09-16T05:28:36.812Z,999.03
2017-09-16T05:29:17.371Z,999.06
2017-09-16T05:29:57.935Z,999.03
2017-09-16T05:30:38.512Z,999.06
2017-09-16T05:31:19.091Z,999.06
2017-09-16T05:31:59.697Z,999.06
2017-09-16T05:32:40.267Z,999.08
2017-09-16T05:33:20.834Z,999.1
2017-09-16T05:34:01.400Z,999.11
2017-09-16T05:34:41.961Z,999.1
2017-09-16T05:35:22.515Z,999.07
2017-09-16T05:36:03.073Z,999.1
2017-09-16T05:36:43.636Z,999.08
2017-09-16T05:37:24.214Z,999.09
2017-09-16T05:38:04.778Z,999.06
2017-09-16T05:38:45.343Z,999.12
2017-09-16T05:39:25.909Z,999.08
2017-09-16T05:40:06.465Z,999.1
2017-09-16T05:40:46.989Z,999.12
2017-09-16T05:41:27.532Z,999.11
2017-09-16T05:42:08.065Z,999.12
2017-09-16T05:42:48.645Z,999.16
2017-09-16T05:43:29.173Z,999.12
2017-09-16T05:44:09.698Z,999.16
2017-09-16T05:44:50.243Z,999.14
2017-09-16T05:45:30.812Z,999.15
2017-09-16T05:46:11.371Z,999.15
2017-09-16T05:46:51.933Z,999.15
2017-09-16T05:47:32.496Z,999.16
2017-09-16T05:48:13.070Z,999.14
2017-09-16T05:48:53.635Z,999.13
2017-09-16T05:49:34.180Z,999.11
2017-09-16T05:50:14.731Z,999.13
2017-09-16T05:50:55.307Z,999.14
2017-09-16T05:51:35.861Z,999.1
2017-09-16T05:52:16.424Z,999.05
2017-09-16T05:52:56.992Z,999.03
2017-09-16T05:53:37.536Z,999.03
2017-09-16T05:54:18.095Z,999.03
2017-09-16T05:54:58.630Z,998.99
2017-09-16T05:55:39.229Z,999.02
2017-09-16T05:56:19.782Z,999.01
2017-09-16T05:57:00.349Z,999.02
2017-09-16T05:57:40.915Z,999.03
2017-09-16T05:58:21.481Z,999.05
2017-09-16T05:59:02.043Z,999.02
2017-09-16T05:59:42.615Z,999.03
2017-09-16T06:00:23.189Z,999.05
2017-09-16T06:01:03.779Z,999.09
2017-09-16T06:01:44.321Z,999.07
2017-09-16T06:02:24.901Z,999.09
2017-09-16T06:03:05.468Z,999.08
2017-09-16T06:03:46.107Z,999.07
2017-09-16T06:04:26.673Z,999.05
2017-09-16T06:05:07.210Z,999.05
2017-09-16T06:05:47.767Z,999.04
2017-09-16T06:06:28.338Z,999.07
2017-09-16T06:07:08.898Z,999.09
2017-09-16T06:07:49.468Z,999.07
2017-09-16T06:08:30.012Z,999.1
2017-09-16T06:09:10.563Z,999.08
2017-09-16T06:09:51.113Z,999.08
2017-09-16T06:10:31.669Z,999.06
2017-09-16T06:11:12.226Z,999.08
2017-09-16T06:11:52.791Z,999.06
2017-09-16T06:12:33.349Z,999.06
2017-09-16T06:13:13.905Z,999.08
2017-09-16T06:13:54.472Z,999.06
2017-09-16T06:14:35.025Z,999.08
2017-09-16T06:15:15.595Z,999.08
2017-09-16T06:15:56.154Z,999.09
2017-09-16T06:16:36.726Z,999.1
2017-09-16T06:17:17.280Z,999.17
2017-09-16T06:17:57.844Z,999.16
2017-09-16T06:18:38.401Z,999.17
2017-09-16T06:19:18.955Z,999.16
2017-09-16T06:19:59.519Z,999.19
2017-09-16T06:20:40.083Z,999.22
2017-09-16T06:21:20.648Z,999.17
2017-09-16T06:22:01.212Z,999.16
2017-09-16T06:22:41.776Z,999.19
2017-09-16T06:23:22.341Z,999.15
2017-09-16T06:24:02.874Z,999.17
2017-09-16T06:24:43.464Z,999.14
2017-09-16T06:25:23.967Z,999.18
2017-09-16T06:26:04.565Z,999.14
2017-09-16T06:26:45.128Z,999.12
2017-09-16T06:27:25.682Z,999.17
2017-09-16T06:28:06.251Z,999.15
2017-09-16T06:28:46.951Z,999.16
2017-09-16T06:29:27.502Z,999.19
2017-09-16T06:30:08.060Z,999.16
2017-09-16T06:30:48.668Z,999.16
2017-09-16T06:31:29.231Z,999.18
2017-09-16T06:32:09.789Z,999.21
2017-09-16T06:32:50.342Z,999.2
2017-09-16T06:33:30.884Z,999.2
2017-09-16T06:34:11.444Z,999.2
2017-09-16T06:34:52.012Z,999.23
2017-09-16T06:35:32.595Z,999.22
2017-09-16T06:36:13.173Z,999.21
2017-09-16T06:36:53.727Z,999.26
2017-09-16T06:37:34.296Z,999.32
2017-09-16T06:38:14.849Z,999.29
2017-09-16T06:38:55.413Z,999.28
2017-09-16T06:39:35.978Z,999.29
2017-09-16T06:40:16.549Z,999.35
2017-09-16T06:40:57.103Z,999.33
2017-09-16T06:41:37.670Z,999.32
2017-09-16T06:42:18.253Z,999.34
2017-09-16T06:42:58.839Z,999.37
2017-09-16T06:43:39.335Z,999.32
2017-09-16T06:44:19.905Z,999.34
2017-09-16T06:45:00.455Z,999.36
2017-09-16T06:45:40.999Z,999.32
2017-09-16T06:46:21.572Z,999.38
2017-09-16T06:47:02.129Z,999.35
2017-09-16T06:47:42.684Z,999.37
2017-09-16T06:48:23.270Z,999.38
2017-09-16T06:49:03.821Z,999.39
2017-09-16T06:49:44.384Z,999.39
2017-09-16T06:50:24.945Z,999.38
2017-09-16T06:51:05.502Z,999.34
2017-09-16T06:51:46.068Z,999.41
2017-09-16T06:52:26.622Z,999.41
2017-09-16T06:53:07.176Z,999.4
2017-09-16T06:53:47.738Z,999.38
2017-09-16T06:54:28.297Z,999.42
2017-09-16T06:55:08.862Z,999.44
2017-09-16T06:55:49.385Z,999.45
2017-09-16T06:56:29.958Z,999.45
2017-09-16T06:57:10.522Z,999.5
2017-09-16T06:57:50.970Z,999.52
2017-09-16T06:58:31.498Z,999.49
2017-09-16T06:59:12.094Z,999.48
2017-09-16T06:59:52.665Z,999.54
2017-09-16T07:00:33.215Z,999.55
2017-09-16T07:01:13.773Z,999.54
2017-09-16T07:01:54.343Z,999.53
2017-09-16T07:02:34.915Z,999.53
2017-09-16T07:03:15.482Z,999.52
2017-09-16T07:03:56.036Z,999.54
2017-09-16T07:04:36.601Z,999.55
2017-09-16T07:05:17.181Z,999.55
2017-09-16T07:05:57.746Z,999.52
2017-09-16T07:06:38.310Z,999.56
2017-09-16T07:07:18.860Z,999.59
2017-09-16T07:07:59.442Z,999.57
2017-09-16T07:08:40.011Z,999.62
2017-09-16T07:09:20.577Z,999.62
2017-09-16T07:10:01.143Z,999.63
2017-09-16T07:10:41.704Z,999.6
2017-09-16T07:11:22.268Z,999.65
2017-09-16T07:12:02.827Z,999.62
2017-09-16T07:12:43.394Z,999.64
2017-09-16T07:13:23.956Z,999.61
2017-09-16T07:14:04.499Z,999.63
2017-09-16T07:14:45.062Z,999.65
2017-09-16T07:15:25.623Z,999.63
2017-09-16T07:16:06.177Z,999.56
2017-09-16T07:16:46.754Z,999.63
2017-09-16T07:17:27.312Z,999.6
2017-09-16T07:18:07.878Z,999.65
2017-09-16T07:18:48.437Z,999.62
2017-09-16T07:19:29.001Z,999.64
2017-09-16T07:20:09.565Z,999.64
2017-09-16T07:20:50.117Z,999.66
2017-09-16T07:21:30.680Z,999.66
2017-09-16T07:22:11.233Z,999.69
2017-09-16T07:22:51.793Z,999.67
2017-09-16T07:23:32.332Z,999.66
2017-09-16T07:24:12.889Z,999.63
2017-09-16T07:24:53.454Z,999.68
2017-09-16T07:25:34.013Z,999.69
2017-09-16T07:26:14.560Z,999.71
2017-09-16T07:26:55.072Z,999.7
2017-09-16T07:27:35.629Z,999.69
2017-09-16T07:28:16.183Z,999.73
2017-09-16T07:28:56.759Z,999.74
2017-09-16T07:29:37.316Z,999.74
2017-09-16T07:30:17.852Z,999.79
2017-09-16T07:30:58.415Z,999.75
2017-09-16T07:31:38.978Z,999.75
2017-09-16T07:32:19.550Z,999.72
2017-09-16T07:33:00.091Z,999.76
2017-09-16T07:33:40.661Z,999.74
2017-09-16T07:34:21.196Z,999.78
2017-09-16T07:35:01.762Z,999.76
2017-09-16T07:35:42.322Z,999.76
2017-09-16T07:36:22.875Z,999.75
2017-09-16T07:37:03.454Z,999.73
2017-09-16T07:37:44.018Z,999.74
2017-09-16T07:38:24.568Z,999.73
2017-09-16T07:39:05.122Z,999.77
2017-09-16T07:39:45.660Z,999.74
2017-09-16T07:40:26.211Z,999.74
2017-09-16T07:41:06.814Z,999.82
2017-09-16T07:41:47.337Z,999.8
2017-09-16T07:42:27.869Z,999.81
2017-09-16T07:43:08.474Z,999.8
2017-09-16T07:43:49.069Z,999.82
2017-09-16T07:44:29.592Z,999.81
2017-09-16T07:45:10.153Z,999.85
2017-09-16T07:45:50.728Z,999.86
2017-09-16T07:46:31.302Z,999.83
2017-09-16T07:47:11.835Z,999.88
2017-09-16T07:47:52.544Z,999.91
2017-09-16T07:48:33.105Z,999.87
2017-09-16T07:49:13.644Z,999.89
2017-09-16T07:49:54.205Z,999.91
2017-09-16T07:50:34.770Z,999.9
2017-09-16T07:51:15.333Z,999.93
2017-09-16T07:51:55.896Z,999.9
2017-09-16T07:52:36.457Z,999.89
2017-09-16T07:53:17.024Z,999.89
2017-09-16T07:53:57.629Z,999.92
2017-09-16T07:54:38.203Z,999.9
2017-09-16T07:55:18.758Z,999.9
2017-09-16T07:55:59.316Z,999.94
2017-09-16T07:56:39.882Z,999.93
2017-09-16T07:57:20.443Z,999.9
2017-09-16T07:58:00.976Z,999.91
2017-09-16T07:58:41.535Z,999.87
2017-09-16T07:59:22.094Z,999.89
2017-09-16T08:00:02.643Z,999.87
2017-09-16T08:00:43.187Z,999.94
2017-09-16T08:01:23.791Z,999.92
2017-09-16T08:02:04.340Z,999.92
2017-09-16T08:02:44.911Z,999.9
2017-09-16T08:03:25.471Z,999.9
2017-09-16T08:04:06.047Z,999.9
2017-09-16T08:04:46.601Z,999.88
2017-09-16T08:05:27.168Z,999.95
2017-09-16T08:06:07.701Z,999.92
2017-09-16T08:06:48.239Z,999.94
2017-09-16T08:07:28.807Z,999.9
2017-09-16T08:08:09.374Z,999.93
2017-09-16T08:08:49.930Z,999.92
2017-09-16T08:09:30.496Z,999.93
2017-09-16T08:10:11.051Z,999.94
2017-09-16T08:10:51.640Z,999.93
2017-09-16T08:11:32.206Z,999.96
2017-09-16T08:12:12.772Z,999.97
2017-09-16T08:12:53.411Z,999.97
2017-09-16T08:13:34.143Z,999.93
2017-09-16T08:14:14.692Z,999.99
2017-09-16T08:14:55.266Z,999.99
2017-09-16T08:15:35.911Z,999.96
2017-09-16T08:16:16.477Z,999.97
2017-09-16T08:16:57.035Z,1000
2017-09-16T08:17:37.598Z,1000
2017-09-16T08:18:18.195Z,999.98
2017-09-16T08:18:58.763Z,999.96
2017-09-16T08:19:39.384Z,999.98
2017-09-16T08:20:19.898Z,999.94
2017-09-16T08:21:00.431Z,999.94
2017-09-16T08:21:40.982Z,999.92
2017-09-16T08:22:21.545Z,999.9
2017-09-16T08:23:02.104Z,999.94
2017-09-16T08:23:42.737Z,999.93
2017-09-16T08:24:23.455Z,999.87
2017-09-16T08:25:03.997Z,999.91
2017-09-16T08:25:44.522Z,999.91
2017-09-16T08:26:25.058Z,999.9
2017-09-16T08:27:05.619Z,999.89
2017-09-16T08:27:46.168Z,999.92